Adkins, Texas
Current Conditions -  °F | °C
As of 12:58 PM on Sunday 21 Dec 2014 (Local Time) from KRND Reporting Station
Overcast Overcast  
Wind Chill: 54°   Ceiling: 800
Heat Index: 54°   Visibility: 10mi
Dew Point: 51°   Wind: 8mph
Humidity: 92%   Direction: 190°S
Pressure: 30"   Gusts: NA
Location:  29.39°N, 98.24°W
Report Text: KRND 211858Z AUTO 19007KT 10SM OVC008 12/11 A3000 RMK AO2 PRESFR SLP158 T01200108
Loading
Personal Weather Stations






























Interactive Weather Map New forecast layout! Learn more

10-Day Weather Forecast

Advertisements
Track Severe Weather on mobile